Ship Status Report: callsign BATFR60

sailwx.info

Track history (hours):
 
Tides and Currents Weather Stations Pressure Air Temp Water Temp Dewpoint Dewpoint Depression Visibility Wind Speed Wind Dir Waves Ship Positions

Callsign BATFR60 (name unknown)

Last reported at 2018-Apr-19 09:00 UTC. Time now 2018-Apr-19 10:25 UTC.
Position N 47°42' W 005°06'.

Wind from 050 at 7 knots

Barometer 1023.7 mb
Air temperature 12.7 ° C
Dewpoint 10.5 ° C
Water temperature 11.0 ° C

Date/timePositionNaut miles runAvg speedWind from/ knotsBaromVisibWave heightAir tempDewpointWater temp
2018-Apr-19 09:00N 47°42' W 005°06'1717.0 050 / 71023.7 12.710.511.0
2018-Apr-19 08:00N 47°54' W 005°24'1414.4 310 / 41023.3 13.710.210.9
2018-Apr-19 07:00N 48°06' W 005°36'1313.4 180 / 71023.0 12.710.210.4
2018-Apr-19 06:00N 48°12' W 005°54'1414.4 210 / 81022.9 12.210.410.2
2018-Apr-19 05:00N 48°24' W 006°06'1312.6 190 / 111022.5 11.910.410.0
2018-Apr-19 04:00N 48°36' W 006°12'1818.4 230 / 191022.7 11.710.410.0
2018-Apr-19 03:00N 48°54' W 006°06'1212.0 210 / 181023.1 11.710.410.0
2018-Apr-19 02:00N 49°06' W 006°06'1818.0 200 / 171022.9 11.410.2 9.9
2018-Apr-19 01:00N 49°24' W 006°06'1212.0 180 / 171023.0 11.410.2 9.9
2018-Apr-19 00:00N 49°36' W 006°06'1818.4 180 / 171022.8 11.210.0 9.7
2018-Apr-18 23:00N 49°54' W 006°00'1818.0 180 / 141022.5 10.7 9.9 9.2
2018-Apr-18 22:00N 50°12' W 006°00'1312.6 170 / 171021.9 10.7 9.7 9.2
2018-Apr-18 21:00N 50°24' W 006°06'1818.4 180 / 211021.3 10.9 9.4 9.0
2018-Apr-18 20:00N 50°42' W 006°00'1212.0 180 / 221021.1 11.2 9.0 9.0
2018-Apr-18 19:00N 50°54' W 006°00'1212.0 190 / 251019.4 12.2 8.7 8.9
2018-Apr-18 18:00N 51°06' W 006°00'1212.0 180 / 241019.310.8 12.5 8.9 8.7
2018-Apr-18 17:00N 51°18' W 006°00'1212.0 200 / 271019.4 12.7 8.7 8.7
2018-Apr-18 16:00N 51°30' W 006°00'1212.0 160 / 281018.7 12.9 8.9 8.2
2018-Apr-18 15:00N 51°42' W 006°00'1919.5 150 / 321018.3 12.7 9.0 7.9
2018-Apr-18 14:00N 52°00' W 005°48'1312.6 140 / 321018.8 11.9 8.9 7.7
2018-Apr-18 13:00N 52°12' W 005°42'7 7.0 160 / 321020.0 11.9 9.0 7.9
2018-Apr-18 12:00N 52°18' W 005°36'1312.5 170 / 261021.3 10.9 8.9 7.7
2018-Apr-18 11:00N 52°30' W 005°30'6 6.0 180 / 321021.0 10.7 9.2 7.7
2018-Apr-18 10:00N 52°36' W 005°30'4 3.6 170 / 251020.9 9.7 9.2 7.7
2018-Apr-18 09:00N 52°36' W 005°24'6 6.0 190 / 311020.5 9.7 9.4 7.7
2018-Apr-18 08:00N 52°42' W 005°24'7 7.0 190 / 321020.9 9.7 9.2 7.2
2018-Apr-18 07:00N 52°48' W 005°18'1312.5 190 / 301020.4 9.5 8.9 7.2
2018-Apr-18 06:00N 53°00' W 005°12'1414.0 190 / 321019.1 9.7 9.2 7.4
2018-Apr-18 05:00N 53°12' W 005°00'1312.5 190 / 321018.5 9.9 9.2 7.4
2018-Apr-18 04:00N 53°24' W 004°54'1918.6 190 / 291018.3 9.9 9.4 7.4
2018-Apr-18 03:00N 53°36' W 004°30'1515.5 160 / 151018.6 10.4 9.5 6.7
2018-Apr-18 02:00N 53°30' W 004°06'1615.5 210 / 131018.0 11.9 9.4 6.5
2018-Apr-18 01:00N 53°24' W 003°42'1414.3 150 / 111018.5 13.4 9.0 6.2
2018-Apr-18 00:00N 53°24' W 003°18'6 0.5 140 / 61018.5 12.4 8.9 7.0
2018-Apr-17 11:00N 53°18' W 003°18'7 7.0 140 / 171010.7 10.2 8.9 7.2
2018-Apr-17 10:00N 53°24' W 003°24'1110.7 160 / 191009.5 11.9 9.2 6.9
2018-Apr-17 09:00N 53°24' W 003°42'9 9.3 190 / 291008.3 11.4 8.0 6.2
2018-Apr-17 08:00N 53°30' W 003°54'4 3.6 200 / 241008.0 10.4 7.7 6.2
2018-Apr-17 07:00N 53°30' W 004°00'7 7.1 210 / 291008.1 10.9 7.9 6.2
2018-Apr-17 06:00N 53°30' W 004°12'7 7.1 200 / 431006.0 10.4 8.2 6.4
2018-Apr-17 05:00N 53°30' W 004°24'7 7.1 200 / 471004.4 10.7 8.4 6.4
2018-Apr-17 04:00N 53°30' W 004°36'7 7.0 180 / 401004.9 9.7 8.4 6.5
2018-Apr-17 03:00N 53°24' W 004°42'4 3.6 180 / 371005.1 9.7 8.2 7.2
2018-Apr-17 02:00N 53°24' W 004°48'7 7.0 170 / 401005.8 9.7 7.9 7.4
2018-Apr-17 01:00N 53°18' W 004°54'1312.5 170 / 381006.2 10.2 7.4 7.4
2018-Apr-17 00:00N 53°06' W 005°00'7 7.0 170 / 371006.5 9.7 7.4 7.4
2018-Apr-16 23:00N 53°00' W 005°06'1312.5 170 / 371006.2 9.7 7.4 7.4
2018-Apr-16 22:00N 52°48' W 005°12'1312.5 170 / 371006.6 9.7 7.4 7.7
2018-Apr-16 21:00N 52°36' W 005°18'1312.5 170 / 361007.6 9.7 7.5 7.5
2018-Apr-16 20:00N 52°24' W 005°24'1414.1 170 / 371008.0 9.5 7.7 7.5
2018-Apr-16 19:00N 52°12' W 005°36'1312.6 170 / 381008.2 9.2 7.7 7.5
2018-Apr-16 18:00N 52°00' W 005°42'1312.6 170 / 341007.8 9.2 7.9 7.5
2018-Apr-16 17:00N 51°48' W 005°48'6 6.0 170 / 321008.2 9.5 7.7 7.5
2018-Apr-16 16:00N 51°42' W 005°48'1312.6 180 / 311008.2 9.9 7.5 7.4
2018-Apr-16 15:00N 51°30' W 005°42'7 7.5 170 / 281008.2 10.4 6.5 7.4
2018-Apr-16 14:00N 51°30' W 005°30'1111.2 170 / 211009.6 10.4 6.7 7.7
2018-Apr-16 13:00N 51°30' W 005°12'7 7.5 170 / 211009.9 10.7 6.4 7.9
2018-Apr-16 12:00N 51°30' W 005°00'10 9.6 160 / 171010.6 10.7 6.2 7.4
2018-Apr-16 11:00N 51°24' W 004°48'1515.0 150 / 141011.3 10.2 6.7 7.4
2018-Apr-16 10:00N 51°24' W 004°24'1111.2 160 / 121011.1 10.2 6.4 7.4
2018-Apr-16 09:00N 51°24' W 004°06'1111.2 200 / 131010.5 10.4 5.9 7.4
2018-Apr-16 08:00N 51°24' W 003°48'1515.0 230 / 171010.5 9.7 5.7 6.9
2018-Apr-16 07:00N 51°24' W 003°24'7 7.5 220 / 131010.2 9.2 5.9 7.0
2018-Apr-16 06:00N 51°24' W 003°12'10 9.6 210 / 161009.5 8.2 5.7 7.0
2018-Apr-16 05:00N 51°30' W 003°00'0 0.0 210 / 181009.1 8.2 5.7 7.5
2018-Apr-15 15:00N 51°30' W 003°00'1312.7 160 / 221004.2 11.5 8.5 7.7
2018-Apr-15 14:00N 51°24' W 003°18'1312.7 140 / 211005.3 10.0 8.5 7.2
2018-Apr-15 13:00N 51°18' W 003°36'8 7.5 130 / 241005.7 10.4 8.2 7.0
2018-Apr-15 12:00N 51°18' W 003°48'1111.3 150 / 241005.2 11.9 7.9 7.2
2018-Apr-15 11:00N 51°18' W 004°06'10 9.6 140 / 231005.0 11.7 8.2 7.4
2018-Apr-15 10:00N 51°12' W 004°18'4 3.8 140 / 261004.7 10.7 8.5 7.7
2018-Apr-15 09:00N 51°12' W 004°24'10 9.6 130 / 221004.7 9.5 8.4 7.7
2018-Apr-15 08:00N 51°06' W 004°36'7 7.1 160 / 211005.2 10.4 8.7 7.9
2018-Apr-15 07:00N 51°00' W 004°42'10 9.7 150 / 241004.2 9.5 8.7 8.9
2018-Apr-15 06:00N 50°54' W 004°54'10 9.7 170 / 251005.1 10.0 9.0 9.0
2018-Apr-15 05:00N 50°48' W 005°06'10 9.7 150 / 271004.4 9.7 8.9 9.2
2018-Apr-15 04:00N 50°42' W 005°18'1716.6 160 / 251005.2 9.9 8.9 9.2
2018-Apr-15 03:00N 50°30' W 005°36'10 9.7 170 / 291006.1 10.0 8.7 8.9
2018-Apr-15 02:00N 50°24' W 005°48'7 7.1 170 / 281007.0 10.2 8.9 8.5
2018-Apr-15 01:00N 50°18' W 005°54'1212.0 160 / 271008.1 10.2 9.0 8.7
2018-Apr-15 00:00N 50°06' W 005°54'1312.6 160 / 271008.6 10.7 9.2 8.9
2018-Apr-14 23:00N 49°54' W 005°48'1211.6 150 / 271009.8 10.9 9.5 9.9
2018-Apr-14 22:00N 49°54' W 005°30'1211.6 140 / 241011.3 10.7 9.7 9.9
2018-Apr-14 21:00N 49°54' W 005°12'1211.6 130 / 191012.0 10.4 9.5 9.7
2018-Apr-14 20:00N 49°54' W 004°54'8 7.7 120 / 121012.7 9.7 8.9 9.5
2018-Apr-14 19:00N 49°54' W 004°42'1313.0 120 / 111013.9 9.7 8.5 9.7
2018-Apr-14 18:00N 50°00' W 004°24'8 7.7 120 / 131013.8 9.4 8.7 9.5
2018-Apr-14 17:00N 50°00' W 004°12'8 7.7 110 / 141013.7 8.9 8.4 9.4
2018-Apr-14 16:00N 50°00' W 004°00'1211.6 100 / 181013.8 8.9 7.9 9.2
2018-Apr-14 15:00N 50°00' W 003°42'10 9.8 080 / 151014.3 9.4 7.7 8.9
2018-Apr-14 14:00N 50°06' W 003°30'1211.5 090 / 181015.0 9.7 7.7 8.4
2018-Apr-14 13:00N 50°06' W 003°12'1313.0 090 / 151016.1 10.2 8.0 8.2
2018-Apr-14 12:00N 50°12' W 002°54'1211.5 100 / 151016.9 9.7 7.7 8.7
2018-Apr-14 11:00N 50°12' W 002°36'1211.5 110 / 161016.9 9.0 7.5 8.7
2018-Apr-14 10:00N 50°12' W 002°18'8 7.7 090 / 131017.1 9.4 8.0 8.4
2018-Apr-14 09:00N 50°12' W 002°06'10 9.7 070 / 91017.5 9.4 8.7 8.2
2018-Apr-14 08:00N 50°18' W 001°54'8 7.7 070 / 61017.3 8.7 8.4 8.2
2018-Apr-14 07:00N 50°18' W 001°42'8 7.7 080 / 61016.6 7.7 7.4 8.0
2018-Apr-14 06:00N 50°18' W 001°30'8 7.7 110 / 31016.9 7.2 6.9 7.9
2018-Apr-14 05:00N 50°18' W 001°18'10 9.7 170 / 11016.6 7.2 6.9 7.2
2018-Apr-14 04:00N 50°24' W 001°06'1111.5 190 / 41016.5 7.5 7.4 7.2
2018-Apr-14 03:00N 50°24' W 000°48'1111.5 210 / 21016.9 7.2 6.9 7.4
2018-Apr-14 02:00N 50°24' W 000°30'1312.9 270 / 31016.9 7.9 7.7 7.9
2018-Apr-14 01:00N 50°30' W 000°12'1111.4 210 / 31016.5 6.7 6.4 8.0
2018-Apr-14 00:00N 50°30' E 000°06'1312.9 190 / 81016.0 6.4 6.2 8.0
2018-Apr-13 23:00N 50°36' E 000°24'8 7.6 200 / 31015.5 6.5 6.2 7.9
2018-Apr-13 22:00N 50°36' E 000°36'10 9.7 220 / 61015.1 6.4 6.0 7.7
2018-Apr-13 21:00N 50°42' E 000°48'10 9.7 220 / 8
2018-Apr-13 20:00N 50°48' E 001°00'10 9.7 250 / 101014.0 7.2 6.4 7.9
2018-Apr-13 19:00N 50°54' E 001°12'10 9.7 230 / 81012.3 8.7 7.7 7.9
2018-Apr-13 18:00N 51°00' E 001°24'1414.2 200 / 111012.2 9.0 7.4 8.0
2018-Apr-13 17:00N 51°12' E 001°36'1212.0 220 / 151010.7 9.0 7.5 7.9
2018-Apr-13 16:00N 51°24' E 001°36'   220 / 141010.1 10.7 7.5 7.7
Track history (hours):
 
Tides and Currents Weather Stations Pressure Air Temp Water Temp Dewpoint Dewpoint Depression Visibility Wind Speed Wind Dir Waves Ship Positions

Callsign BATFR60 (name unknown)

Last reported at 2018-Apr-19 09:00 UTC. Time now 2018-Apr-19 10:25 UTC.
Position N 47°42' W 005°06'.

Wind from 050 at 7 knots

Barometer 1023.7 mb
Air temperature 12.7 ° C
Dewpoint 10.5 ° C
Water temperature 11.0 ° C

Date/timePositionNaut miles runAvg speedWind from/ knotsBaromVisibWave heightAir tempDewpointWater temp
2018-Apr-19 09:00N 47°42' W 005°06'1717.0 050 / 71023.7 12.710.511.0
2018-Apr-19 08:00N 47°54' W 005°24'1414.4 310 / 41023.3 13.710.210.9
2018-Apr-19 07:00N 48°06' W 005°36'1313.4 180 / 71023.0 12.710.210.4
2018-Apr-19 06:00N 48°12' W 005°54'1414.4 210 / 81022.9 12.210.410.2
2018-Apr-19 05:00N 48°24' W 006°06'1312.6 190 / 111022.5 11.910.410.0
2018-Apr-19 04:00N 48°36' W 006°12'1818.4 230 / 191022.7 11.710.410.0
2018-Apr-19 03:00N 48°54' W 006°06'1212.0 210 / 181023.1 11.710.410.0
2018-Apr-19 02:00N 49°06' W 006°06'1818.0 200 / 171022.9 11.410.2 9.9
2018-Apr-19 01:00N 49°24' W 006°06'1212.0 180 / 171023.0 11.410.2 9.9
2018-Apr-19 00:00N 49°36' W 006°06'1818.4 180 / 171022.8 11.210.0 9.7
2018-Apr-18 23:00N 49°54' W 006°00'1818.0 180 / 141022.5 10.7 9.9 9.2
2018-Apr-18 22:00N 50°12' W 006°00'1312.6 170 / 171021.9 10.7 9.7 9.2
2018-Apr-18 21:00N 50°24' W 006°06'1818.4 180 / 211021.3 10.9 9.4 9.0
2018-Apr-18 20:00N 50°42' W 006°00'1212.0 180 / 221021.1 11.2 9.0 9.0
2018-Apr-18 19:00N 50°54' W 006°00'1212.0 190 / 251019.4 12.2 8.7 8.9
2018-Apr-18 18:00N 51°06' W 006°00'1212.0 180 / 241019.310.8 12.5 8.9 8.7
2018-Apr-18 17:00N 51°18' W 006°00'1212.0 200 / 271019.4 12.7 8.7 8.7
2018-Apr-18 16:00N 51°30' W 006°00'1212.0 160 / 281018.7 12.9 8.9 8.2
2018-Apr-18 15:00N 51°42' W 006°00'1919.5 150 / 321018.3 12.7 9.0 7.9
2018-Apr-18 14:00N 52°00' W 005°48'1312.6 140 / 321018.8 11.9 8.9 7.7
2018-Apr-18 13:00N 52°12' W 005°42'7 7.0 160 / 321020.0 11.9 9.0 7.9
2018-Apr-18 12:00N 52°18' W 005°36'1312.5 170 / 261021.3 10.9 8.9 7.7
2018-Apr-18 11:00N 52°30' W 005°30'6 6.0 180 / 321021.0 10.7 9.2 7.7
2018-Apr-18 10:00N 52°36' W 005°30'4 3.6 170 / 251020.9 9.7 9.2 7.7
2018-Apr-18 09:00N 52°36' W 005°24'6 6.0 190 / 311020.5 9.7 9.4 7.7
2018-Apr-18 08:00N 52°42' W 005°24'7 7.0 190 / 321020.9 9.7 9.2 7.2
2018-Apr-18 07:00N 52°48' W 005°18'1312.5 190 / 301020.4 9.5 8.9 7.2
2018-Apr-18 06:00N 53°00' W 005°12'1414.0 190 / 321019.1 9.7 9.2 7.4
2018-Apr-18 05:00N 53°12' W 005°00'1312.5 190 / 321018.5 9.9 9.2 7.4
2018-Apr-18 04:00N 53°24' W 004°54'1918.6 190 / 291018.3 9.9 9.4 7.4
2018-Apr-18 03:00N 53°36' W 004°30'1515.5 160 / 151018.6 10.4 9.5 6.7
2018-Apr-18 02:00N 53°30' W 004°06'1615.5 210 / 131018.0 11.9 9.4 6.5
2018-Apr-18 01:00N 53°24' W 003°42'1414.3 150 / 111018.5 13.4 9.0 6.2
2018-Apr-18 00:00N 53°24' W 003°18'6 0.5 140 / 61018.5 12.4 8.9 7.0
2018-Apr-17 11:00N 53°18' W 003°18'7 7.0 140 / 171010.7 10.2 8.9 7.2
2018-Apr-17 10:00N 53°24' W 003°24'1110.7 160 / 191009.5 11.9 9.2 6.9
2018-Apr-17 09:00N 53°24' W 003°42'9 9.3 190 / 291008.3 11.4 8.0 6.2
2018-Apr-17 08:00N 53°30' W 003°54'4 3.6 200 / 241008.0 10.4 7.7 6.2
2018-Apr-17 07:00N 53°30' W 004°00'7 7.1 210 / 291008.1 10.9 7.9 6.2
2018-Apr-17 06:00N 53°30' W 004°12'7 7.1 200 / 431006.0 10.4 8.2 6.4
2018-Apr-17 05:00N 53°30' W 004°24'7 7.1 200 / 471004.4 10.7 8.4 6.4
2018-Apr-17 04:00N 53°30' W 004°36'7 7.0 180 / 401004.9 9.7 8.4 6.5
2018-Apr-17 03:00N 53°24' W 004°42'4 3.6 180 / 371005.1 9.7 8.2 7.2
2018-Apr-17 02:00N 53°24' W 004°48'7 7.0 170 / 401005.8 9.7 7.9 7.4
2018-Apr-17 01:00N 53°18' W 004°54'1312.5 170 / 381006.2 10.2 7.4 7.4
2018-Apr-17 00:00N 53°06' W 005°00'7 7.0 170 / 371006.5 9.7 7.4 7.4
2018-Apr-16 23:00N 53°00' W 005°06'1312.5 170 / 371006.2 9.7 7.4 7.4
2018-Apr-16 22:00N 52°48' W 005°12'1312.5 170 / 371006.6 9.7 7.4 7.7
2018-Apr-16 21:00N 52°36' W 005°18'1312.5 170 / 361007.6 9.7 7.5 7.5
2018-Apr-16 20:00N 52°24' W 005°24'1414.1 170 / 371008.0 9.5 7.7 7.5
2018-Apr-16 19:00N 52°12' W 005°36'1312.6 170 / 381008.2 9.2 7.7 7.5
2018-Apr-16 18:00N 52°00' W 005°42'1312.6 170 / 341007.8 9.2 7.9 7.5
2018-Apr-16 17:00N 51°48' W 005°48'6 6.0 170 / 321008.2 9.5 7.7 7.5
2018-Apr-16 16:00N 51°42' W 005°48'1312.6 180 / 311008.2 9.9 7.5 7.4
2018-Apr-16 15:00N 51°30' W 005°42'7 7.5 170 / 281008.2 10.4 6.5 7.4
2018-Apr-16 14:00N 51°30' W 005°30'1111.2 170 / 211009.6 10.4 6.7 7.7
2018-Apr-16 13:00N 51°30' W 005°12'7 7.5 170 / 211009.9 10.7 6.4 7.9
2018-Apr-16 12:00N 51°30' W 005°00'10 9.6 160 / 171010.6 10.7 6.2 7.4
2018-Apr-16 11:00N 51°24' W 004°48'1515.0 150 / 141011.3 10.2 6.7 7.4
2018-Apr-16 10:00N 51°24' W 004°24'1111.2 160 / 121011.1 10.2 6.4 7.4
2018-Apr-16 09:00N 51°24' W 004°06'1111.2 200 / 131010.5 10.4 5.9 7.4
2018-Apr-16 08:00N 51°24' W 003°48'1515.0 230 / 171010.5 9.7 5.7 6.9
2018-Apr-16 07:00N 51°24' W 003°24'7 7.5 220 / 131010.2 9.2 5.9 7.0
2018-Apr-16 06:00N 51°24' W 003°12'10 9.6 210 / 161009.5 8.2 5.7 7.0
2018-Apr-16 05:00N 51°30' W 003°00'0 0.0 210 / 181009.1 8.2 5.7 7.5
2018-Apr-15 15:00N 51°30' W 003°00'1312.7 160 / 221004.2 11.5 8.5 7.7
2018-Apr-15 14:00N 51°24' W 003°18'1312.7 140 / 211005.3 10.0 8.5 7.2
2018-Apr-15 13:00N 51°18' W 003°36'8 7.5 130 / 241005.7 10.4 8.2 7.0
2018-Apr-15 12:00N 51°18' W 003°48'1111.3 150 / 241005.2 11.9 7.9 7.2
2018-Apr-15 11:00N 51°18' W 004°06'10 9.6 140 / 231005.0 11.7 8.2 7.4
2018-Apr-15 10:00N 51°12' W 004°18'4 3.8 140 / 261004.7 10.7 8.5 7.7
2018-Apr-15 09:00N 51°12' W 004°24'10 9.6 130 / 221004.7 9.5 8.4 7.7
2018-Apr-15 08:00N 51°06' W 004°36'7 7.1 160 / 211005.2 10.4 8.7 7.9
2018-Apr-15 07:00N 51°00' W 004°42'10 9.7 150 / 241004.2 9.5 8.7 8.9
2018-Apr-15 06:00N 50°54' W 004°54'10 9.7 170 / 251005.1 10.0 9.0 9.0
2018-Apr-15 05:00N 50°48' W 005°06'10 9.7 150 / 271004.4 9.7 8.9 9.2
2018-Apr-15 04:00N 50°42' W 005°18'1716.6 160 / 251005.2 9.9 8.9 9.2
2018-Apr-15 03:00N 50°30' W 005°36'10 9.7 170 / 291006.1 10.0 8.7 8.9
2018-Apr-15 02:00N 50°24' W 005°48'7 7.1 170 / 281007.0 10.2 8.9 8.5
2018-Apr-15 01:00N 50°18' W 005°54'1212.0 160 / 271008.1 10.2 9.0 8.7
2018-Apr-15 00:00N 50°06' W 005°54'1312.6 160 / 271008.6 10.7 9.2 8.9
2018-Apr-14 23:00N 49°54' W 005°48'1211.6 150 / 271009.8 10.9 9.5 9.9
2018-Apr-14 22:00N 49°54' W 005°30'1211.6 140 / 241011.3 10.7 9.7 9.9
2018-Apr-14 21:00N 49°54' W 005°12'1211.6 130 / 191012.0 10.4 9.5 9.7
2018-Apr-14 20:00N 49°54' W 004°54'8 7.7 120 / 121012.7 9.7 8.9 9.5
2018-Apr-14 19:00N 49°54' W 004°42'1313.0 120 / 111013.9 9.7 8.5 9.7
2018-Apr-14 18:00N 50°00' W 004°24'8 7.7 120 / 131013.8 9.4 8.7 9.5
2018-Apr-14 17:00N 50°00' W 004°12'8 7.7 110 / 141013.7 8.9 8.4 9.4
2018-Apr-14 16:00N 50°00' W 004°00'1211.6 100 / 181013.8 8.9 7.9 9.2
2018-Apr-14 15:00N 50°00' W 003°42'10 9.8 080 / 151014.3 9.4 7.7 8.9
2018-Apr-14 14:00N 50°06' W 003°30'1211.5 090 / 181015.0 9.7 7.7 8.4
2018-Apr-14 13:00N 50°06' W 003°12'1313.0 090 / 151016.1 10.2 8.0 8.2
2018-Apr-14 12:00N 50°12' W 002°54'1211.5 100 / 151016.9 9.7 7.7 8.7
2018-Apr-14 11:00N 50°12' W 002°36'1211.5 110 / 161016.9 9.0 7.5 8.7
2018-Apr-14 10:00N 50°12' W 002°18'8 7.7 090 / 131017.1 9.4 8.0 8.4
2018-Apr-14 09:00N 50°12' W 002°06'10 9.7 070 / 91017.5 9.4 8.7 8.2
2018-Apr-14 08:00N 50°18' W 001°54'8 7.7 070 / 61017.3 8.7 8.4 8.2
2018-Apr-14 07:00N 50°18' W 001°42'8 7.7 080 / 61016.6 7.7 7.4 8.0
2018-Apr-14 06:00N 50°18' W 001°30'8 7.7 110 / 31016.9 7.2 6.9 7.9
2018-Apr-14 05:00N 50°18' W 001°18'10 9.7 170 / 11016.6 7.2 6.9 7.2
2018-Apr-14 04:00N 50°24' W 001°06'1111.5 190 / 41016.5 7.5 7.4 7.2
2018-Apr-14 03:00N 50°24' W 000°48'1111.5 210 / 21016.9 7.2 6.9 7.4
2018-Apr-14 02:00N 50°24' W 000°30'1312.9 270 / 31016.9 7.9 7.7 7.9
2018-Apr-14 01:00N 50°30' W 000°12'1111.4 210 / 31016.5 6.7 6.4 8.0
2018-Apr-14 00:00N 50°30' E 000°06'1312.9 190 / 81016.0 6.4 6.2 8.0
2018-Apr-13 23:00N 50°36' E 000°24'8 7.6 200 / 31015.5 6.5 6.2 7.9
2018-Apr-13 22:00N 50°36' E 000°36'10 9.7 220 / 61015.1 6.4 6.0 7.7
2018-Apr-13 21:00N 50°42' E 000°48'10 9.7 220 / 8
2018-Apr-13 20:00N 50°48' E 001°00'10 9.7 250 / 101014.0 7.2 6.4 7.9
2018-Apr-13 19:00N 50°54' E 001°12'10 9.7 230 / 81012.3 8.7 7.7 7.9
2018-Apr-13 18:00N 51°00' E 001°24'1414.2 200 / 111012.2 9.0 7.4 8.0
2018-Apr-13 17:00N 51°12' E 001°36'1212.0 220 / 151010.7 9.0 7.5 7.9
2018-Apr-13 16:00N 51°24' E 001°36'   220 / 141010.1 10.7 7.5 7.7

Dump ship's entire track history